createdAt,value
2023-05-03T00:02:05.479Z,11.93
2023-05-03T00:04:32.484Z,11.13
2023-05-03T00:06:59.610Z,11.77
2023-05-03T00:09:25.909Z,10.00
2023-05-03T00:11:52.978Z,11.10
2023-05-03T00:14:19.263Z,8.55
2023-05-03T00:16:45.655Z,10.25
2023-05-03T00:19:24.254Z,9.43
2023-05-03T00:21:57.209Z,10.25
2023-05-03T00:24:24.302Z,9.43
2023-05-03T00:26:50.664Z,12.57
2023-05-03T00:29:18.195Z,11.05
2023-05-03T00:31:44.556Z,12.20
2023-05-03T00:34:10.927Z,14.27
2023-05-03T00:36:37.357Z,11.73
2023-05-03T00:39:03.647Z,14.38
2023-05-03T00:41:30.636Z,15.90
2023-05-03T00:43:56.940Z,14.30
2023-05-03T00:46:23.310Z,15.35
2023-05-03T00:48:50.034Z,16.23
2023-05-03T00:51:18.686Z,15.73
2023-05-03T00:53:45.008Z,14.77
2023-05-03T00:56:11.502Z,15.95
2023-05-03T00:58:39.564Z,16.58
2023-05-03T01:01:06.965Z,13.55
2023-05-03T01:03:35.484Z,19.33
2023-05-03T01:06:11.455Z,16.00
2023-05-03T01:08:43.813Z,15.98
2023-05-03T01:11:20.074Z,12.98
2023-05-03T01:13:54.654Z,13.82
2023-05-03T01:16:26.437Z,12.17
2023-05-03T01:18:57.200Z,14.70
2023-05-03T01:21:25.323Z,13.48
2023-05-03T01:23:59.312Z,12.70
2023-05-03T01:26:27.653Z,14.48
2023-05-03T01:28:55.069Z,13.27
2023-05-03T01:31:29.872Z,16.33
2023-05-03T01:34:10.228Z,12.70
2023-05-03T01:36:37.015Z,11.15
2023-05-03T01:39:10.295Z,12.27
2023-05-03T01:41:39.981Z,14.00
2023-05-03T01:44:07.096Z,13.43
2023-05-03T01:46:33.487Z,12.70
2023-05-03T01:48:59.965Z,11.93
2023-05-03T01:51:26.857Z,14.27
2023-05-03T01:53:53.165Z,13.80
2023-05-03T01:56:19.450Z,12.23
2023-05-03T01:58:46.430Z,12.23
2023-05-03T02:01:12.776Z,12.63
2023-05-03T02:03:39.136Z,13.40
2023-05-03T02:06:05.696Z,15.25
2023-05-03T02:08:32.148Z,13.98
2023-05-03T02:10:58.520Z,11.75
2023-05-03T02:13:24.807Z,14.85
2023-05-03T02:15:51.845Z,11.50
2023-05-03T02:18:19.508Z,11.55
2023-05-03T02:20:46.142Z,10.77
2023-05-03T02:23:12.830Z,12.80
2023-05-03T02:25:39.305Z,12.68
2023-05-03T02:28:05.915Z,11.27
2023-05-03T02:30:32.342Z,11.38
2023-05-03T02:32:59.364Z,10.88
2023-05-03T02:35:25.845Z,11.55
2023-05-03T02:37:52.159Z,11.65
2023-05-03T02:40:18.456Z,9.38
2023-05-03T02:42:44.901Z,9.45
2023-05-03T02:45:11.515Z,9.20
2023-05-03T02:47:37.862Z,9.85
2023-05-03T02:50:06.260Z,11.57
2023-05-03T02:52:32.925Z,10.15
2023-05-03T02:54:59.244Z,10.63
2023-05-03T02:57:25.639Z,10.13
2023-05-03T02:59:52.172Z,9.05
2023-05-03T03:02:18.508Z,9.57
2023-05-03T03:04:44.800Z,13.68
2023-05-03T03:07:11.826Z,10.25
2023-05-03T03:09:38.140Z,11.80
2023-05-03T03:12:05.194Z,11.55
2023-05-03T03:14:31.535Z,10.13
2023-05-03T03:16:57.909Z,11.32
2023-05-03T03:19:24.202Z,11.27
2023-05-03T03:21:51.082Z,12.23
2023-05-03T03:24:18.062Z,10.05
2023-05-03T03:26:44.352Z,9.27
2023-05-03T03:29:10.667Z,10.90
2023-05-03T03:31:36.993Z,8.13
2023-05-03T03:34:03.364Z,8.57
2023-05-03T03:36:30.068Z,9.68
2023-05-03T03:38:56.387Z,9.48
2023-05-03T03:41:23.402Z,9.45
2023-05-03T03:43:49.728Z,10.23
2023-05-03T03:46:16.779Z,10.45
2023-05-03T03:48:43.201Z,11.15
2023-05-03T03:51:09.491Z,12.10
2023-05-03T03:53:35.871Z,12.90
2023-05-03T03:56:02.348Z,10.50
2023-05-03T03:58:29.380Z,11.15
2023-05-03T04:00:55.934Z,9.07
2023-05-03T04:03:22.336Z,10.75
2023-05-03T04:05:50.246Z,15.70
2023-05-03T04:08:16.542Z,9.70
2023-05-03T04:10:42.982Z,8.15
2023-05-03T04:13:09.291Z,8.57
2023-05-03T04:15:36.224Z,11.13
2023-05-03T04:18:02.870Z,10.82
2023-05-03T04:20:29.305Z,11.15
2023-05-03T04:22:55.741Z,11.30
2023-05-03T04:25:22.084Z,10.05
2023-05-03T04:27:48.406Z,10.02
2023-05-03T04:30:14.810Z,10.55
2023-05-03T04:32:41.818Z,15.65
2023-05-03T04:35:10.053Z,12.95
2023-05-03T04:37:41.914Z,14.52
2023-05-03T04:40:13.994Z,13.13
2023-05-03T04:42:40.425Z,14.50
2023-05-03T04:45:08.852Z,11.07
2023-05-03T04:47:35.353Z,13.70
2023-05-03T04:50:03.004Z,16.38
2023-05-03T04:52:29.415Z,14.63
2023-05-03T04:54:55.850Z,12.90
2023-05-03T04:57:22.170Z,13.05
2023-05-03T04:59:49.267Z,13.52
2023-05-03T05:02:15.702Z,11.93
2023-05-03T05:04:42.007Z,11.23
2023-05-03T05:07:08.935Z,13.48
2023-05-03T05:09:35.655Z,11.68
2023-05-03T05:12:03.313Z,9.85
2023-05-03T05:14:30.542Z,10.65
2023-05-03T05:16:56.902Z,10.35
2023-05-03T05:19:23.257Z,10.82
2023-05-03T05:21:51.453Z,14.77
2023-05-03T05:24:18.509Z,11.48
2023-05-03T05:26:45.157Z,10.60
2023-05-03T05:29:11.957Z,22.48
2023-05-03T05:31:38.308Z,15.77
2023-05-03T05:34:04.662Z,28.40
2023-05-03T05:36:31.037Z,28.25
2023-05-03T05:38:57.459Z,27.73
2023-05-03T05:41:24.468Z,32.83
2023-05-03T05:43:50.945Z,31.23
2023-05-03T05:46:20.246Z,30.63
2023-05-03T05:48:46.777Z,30.90
2023-05-03T05:51:13.146Z,30.52
2023-05-03T05:53:39.426Z,29.00
2023-05-03T05:56:06.090Z,28.30
2023-05-03T05:58:33.101Z,28.65
2023-05-03T06:01:00.493Z,31.27
2023-05-03T06:03:27.111Z,30.52
2023-05-03T06:05:53.484Z,32.15
2023-05-03T06:08:19.836Z,44.95
2023-05-03T06:10:46.282Z,34.28
2023-05-03T06:13:12.576Z,32.08
2023-05-03T06:15:40.316Z,38.97
2023-05-03T06:18:06.796Z,36.38
2023-05-03T06:20:33.160Z,51.97
2023-05-03T06:22:59.579Z,32.38
2023-05-03T06:25:26.006Z,31.83
2023-05-03T06:27:52.348Z,44.88
2023-05-03T06:30:18.791Z,54.33
2023-05-03T06:32:47.729Z,36.22
2023-05-03T06:35:14.909Z,38.67
2023-05-03T06:37:42.894Z,40.25
2023-05-03T06:40:09.583Z,41.33
2023-05-03T06:42:35.913Z,39.38
2023-05-03T06:45:03.008Z,37.58
2023-05-03T06:47:29.368Z,44.45
2023-05-03T06:49:56.370Z,56.53
2023-05-03T06:52:22.726Z,38.58
2023-05-03T06:54:49.016Z,40.10
2023-05-03T06:57:15.382Z,41.45
2023-05-03T06:59:41.694Z,40.75
2023-05-03T07:02:08.186Z,38.90
2023-05-03T07:04:35.196Z,38.80
2023-05-03T07:07:02.254Z,34.38
2023-05-03T07:09:42.205Z,37.60
2023-05-03T07:12:10.061Z,42.75
2023-05-03T07:14:36.462Z,37.60
2023-05-03T07:17:02.852Z,38.47
2023-05-03T07:19:29.774Z,36.70
2023-05-03T07:21:56.088Z,37.53
2023-05-03T07:24:24.985Z,39.95
2023-05-03T07:26:51.889Z,39.97
2023-05-03T07:29:18.482Z,41.45
2023-05-03T07:31:45.008Z,36.67
2023-05-03T07:34:11.350Z,37.22
2023-05-03T07:36:38.574Z,36.85
2023-05-03T07:39:04.902Z,37.22
2023-05-03T07:41:31.894Z,35.60
2023-05-03T07:43:58.263Z,40.67
2023-05-03T07:46:27.498Z,37.75
2023-05-03T07:48:53.903Z,37.70
2023-05-03T07:51:20.452Z,34.35
2023-05-03T07:53:46.812Z,36.50
2023-05-03T07:56:13.153Z,38.33
2023-05-03T07:58:41.067Z,37.63
2023-05-03T08:01:09.948Z,39.50
2023-05-03T08:03:36.848Z,37.03
2023-05-03T08:06:03.819Z,38.80
2023-05-03T08:08:31.424Z,36.53
2023-05-03T08:10:57.757Z,38.42
2023-05-03T08:13:24.129Z,38.00
2023-05-03T08:15:51.278Z,35.58
2023-05-03T08:18:17.684Z,33.05
2023-05-03T08:20:44.479Z,33.50
2023-05-03T08:23:10.820Z,33.63
2023-05-03T08:25:37.199Z,33.00
2023-05-03T08:28:03.782Z,31.95
2023-05-03T08:30:30.642Z,30.70
2023-05-03T08:32:57.822Z,27.05
2023-05-03T08:35:27.401Z,31.90
2023-05-03T08:37:53.756Z,30.88
2023-05-03T08:40:22.090Z,34.72
2023-05-03T08:42:49.310Z,33.45
2023-05-03T08:45:16.168Z,30.25
2023-05-03T08:47:43.975Z,27.80
2023-05-03T08:50:12.795Z,25.02
2023-05-03T08:52:40.049Z,26.85
2023-05-03T08:55:07.753Z,26.00
2023-05-03T08:57:35.045Z,27.48
2023-05-03T09:00:05.419Z,30.33
2023-05-03T09:02:34.140Z,24.85
2023-05-03T09:05:00.546Z,26.13
2023-05-03T09:07:27.533Z,24.90
2023-05-03T09:09:54.280Z,26.23
2023-05-03T09:12:34.432Z,27.38
2023-05-03T09:15:00.917Z,24.27
2023-05-03T09:17:27.236Z,24.95
2023-05-03T09:19:55.184Z,28.98
2023-05-03T09:22:23.794Z,25.50
2023-05-03T09:24:54.810Z,27.00
2023-05-03T09:27:21.911Z,24.65
2023-05-03T09:29:48.915Z,23.98
2023-05-03T09:32:16.228Z,24.45
2023-05-03T09:34:43.746Z,27.20
2023-05-03T09:37:10.442Z,23.92
2023-05-03T09:39:36.994Z,25.08
2023-05-03T09:42:17.434Z,27.40
2023-05-03T09:44:47.912Z,24.23
2023-05-03T09:47:15.221Z,21.23
2023-05-03T09:49:41.502Z,23.92
2023-05-03T09:52:08.432Z,21.30
2023-05-03T09:54:35.219Z,22.38
2023-05-03T09:57:04.158Z,21.80
2023-05-03T09:59:31.773Z,20.70
2023-05-03T10:01:59.045Z,20.58
2023-05-03T10:04:27.217Z,18.98
2023-05-03T10:06:58.769Z,18.88
2023-05-03T10:09:31.891Z,18.50
2023-05-03T10:12:01.202Z,18.48
2023-05-03T10:14:27.874Z,15.35
2023-05-03T10:17:00.089Z,16.25
2023-05-03T10:19:33.196Z,17.73
2023-05-03T10:22:03.880Z,17.30
2023-05-03T10:24:30.313Z,18.25
2023-05-03T10:26:56.930Z,18.90
2023-05-03T10:29:47.423Z,17.02
2023-05-03T10:32:29.474Z,16.80
2023-05-03T10:34:57.475Z,17.33
2023-05-03T10:37:26.375Z,19.63
2023-05-03T10:39:52.729Z,17.08
2023-05-03T10:42:21.945Z,18.92
2023-05-03T10:44:51.767Z,17.13
2023-05-03T10:47:19.574Z,18.52
2023-05-03T10:49:46.606Z,21.60
2023-05-03T10:52:48.475Z,18.33
2023-05-03T10:55:17.323Z,22.40
2023-05-03T10:57:47.303Z,19.38
2023-05-03T11:00:16.519Z,18.63
2023-05-03T11:03:09.416Z,22.90
2023-05-03T11:05:36.521Z,20.92
2023-05-03T11:08:10.638Z,23.30
2023-05-03T11:10:37.113Z,20.00
2023-05-03T11:13:03.504Z,20.10
2023-05-03T11:15:30.512Z,21.13
2023-05-03T11:17:57.123Z,24.35
2023-05-03T11:20:23.642Z,23.77
2023-05-03T11:22:51.360Z,22.20
2023-05-03T11:25:17.919Z,23.80
2023-05-03T11:27:47.797Z,22.42
2023-05-03T11:30:14.788Z,21.48
2023-05-03T11:32:42.403Z,25.23
2023-05-03T11:35:09.431Z,23.00
2023-05-03T11:37:35.885Z,21.25
2023-05-03T11:40:04.260Z,19.42
2023-05-03T11:42:30.606Z,19.58
2023-05-03T11:44:56.966Z,18.67
2023-05-03T11:47:24.211Z,18.88
2023-05-03T11:49:57.315Z,15.32
2023-05-03T11:52:26.617Z,20.80
2023-05-03T11:54:53.474Z,21.40
2023-05-03T11:57:21.076Z,20.15
2023-05-03T11:59:48.974Z,21.92
2023-05-03T12:02:16.228Z,21.25
2023-05-03T12:04:44.451Z,17.55
2023-05-03T12:07:13.630Z,18.23
2023-05-03T12:09:41.627Z,18.55
2023-05-03T12:12:13.615Z,20.00
2023-05-03T12:14:58.685Z,23.25
2023-05-03T12:17:36.987Z,21.52
2023-05-03T12:21:03.837Z,21.35
2023-05-03T12:23:09.207Z,15.48
2023-05-03T12:25:39.602Z,16.92
2023-05-03T12:28:19.793Z,15.48
2023-05-03T12:30:48.165Z,15.98
2023-05-03T12:33:16.027Z,15.77
2023-05-03T12:35:46.816Z,16.65
2023-05-03T12:38:16.596Z,17.92
2023-05-03T12:40:44.401Z,15.60
2023-05-03T12:43:11.084Z,16.55
2023-05-03T12:45:40.143Z,16.70
2023-05-03T12:48:08.390Z,16.80
2023-05-03T12:50:38.373Z,16.88
2023-05-03T12:53:09.490Z,17.85
2023-05-03T12:55:41.685Z,15.80
2023-05-03T13:01:02.905Z,15.27
2023-05-03T13:03:33.232Z,17.08
2023-05-03T13:06:00.353Z,16.00
2023-05-03T13:08:33.540Z,17.98
2023-05-03T13:11:01.306Z,18.70
2023-05-03T13:13:27.837Z,19.08
2023-05-03T13:15:54.178Z,16.77
2023-05-03T13:18:20.911Z,11.75
2023-05-03T13:20:48.505Z,12.23
2023-05-03T13:23:14.818Z,12.52
2023-05-03T13:25:41.299Z,12.50
2023-05-03T13:28:07.892Z,12.65
2023-05-03T13:30:34.272Z,11.40
2023-05-03T13:33:00.804Z,13.57
2023-05-03T13:35:27.193Z,12.32
2023-05-03T13:37:54.276Z,13.75
2023-05-03T13:40:20.645Z,13.10
2023-05-03T13:42:47.909Z,15.77
2023-05-03T13:45:14.352Z,13.55
2023-05-03T13:47:59.501Z,13.73
2023-05-03T13:50:28.763Z,11.85
2023-05-03T13:52:55.967Z,11.07
2023-05-03T13:55:23.547Z,10.55
2023-05-03T13:57:49.859Z,11.98
2023-05-03T14:00:16.923Z,13.23
2023-05-03T14:02:43.343Z,15.20
2023-05-03T14:05:10.394Z,10.48
2023-05-03T14:07:37.385Z,11.45
2023-05-03T14:10:05.645Z,11.10
2023-05-03T14:12:35.815Z,11.50
2023-05-03T14:15:02.658Z,11.70
2023-05-03T14:17:29.074Z,11.05
2023-05-03T14:19:55.490Z,11.70
2023-05-03T14:22:21.792Z,10.27
2023-05-03T14:24:49.582Z,11.65
2023-05-03T14:27:20.900Z,11.40
2023-05-03T14:29:47.290Z,12.45
2023-05-03T14:32:13.640Z,9.38
2023-05-03T14:34:40.017Z,11.38
2023-05-03T14:37:06.355Z,13.43
2023-05-03T14:39:32.689Z,10.65
2023-05-03T14:41:58.954Z,9.40
2023-05-03T14:44:30.073Z,10.25
2023-05-03T14:46:58.119Z,10.23
2023-05-03T14:49:24.628Z,8.90
2023-05-03T14:51:50.993Z,8.60
2023-05-03T14:54:18.884Z,10.30
2023-05-03T14:56:45.217Z,8.98
2023-05-03T14:59:11.545Z,8.52
2023-05-03T15:01:38.516Z,10.63
2023-05-03T15:04:06.832Z,10.63
2023-05-03T15:06:34.046Z,11.07
2023-05-03T15:09:00.396Z,13.48
2023-05-03T15:11:27.051Z,10.13
2023-05-03T15:13:53.417Z,9.80
2023-05-03T15:16:20.021Z,11.40
2023-05-03T15:18:47.800Z,12.30
2023-05-03T15:21:14.546Z,12.20
2023-05-03T15:23:41.518Z,10.45
2023-05-03T15:26:07.951Z,12.13
2023-05-03T15:28:34.309Z,11.13
2023-05-03T15:31:01.236Z,10.93
2023-05-03T15:33:27.593Z,11.27
2023-05-03T15:35:55.059Z,11.70
2023-05-03T15:38:21.401Z,11.20
2023-05-03T15:40:47.721Z,8.50
2023-05-03T15:43:14.011Z,9.80
2023-05-03T15:45:40.670Z,9.88
2023-05-03T15:48:07.029Z,8.70
2023-05-03T15:50:33.545Z,8.48
2023-05-03T15:53:00.494Z,9.40
2023-05-03T15:55:26.784Z,9.20
2023-05-03T15:57:53.699Z,8.32
2023-05-03T16:00:22.267Z,9.23
2023-05-03T16:02:48.627Z,8.70
2023-05-03T16:05:15.762Z,8.50
2023-05-03T16:07:42.114Z,8.30
2023-05-03T16:10:10.273Z,6.70
2023-05-03T16:12:36.935Z,8.82
2023-05-03T16:15:04.267Z,9.23
2023-05-03T16:17:30.779Z,7.43
2023-05-03T16:19:57.238Z,7.70
2023-05-03T16:22:23.533Z,6.80
2023-05-03T16:24:50.493Z,9.00
2023-05-03T16:27:17.500Z,8.07
2023-05-03T16:29:43.809Z,11.32
2023-05-03T16:32:10.437Z,9.10
2023-05-03T16:34:37.510Z,8.68
2023-05-03T16:37:03.822Z,9.73
2023-05-03T16:39:30.696Z,8.43
2023-05-03T16:41:57.031Z,7.72
2023-05-03T16:44:24.263Z,8.82
2023-05-03T16:46:51.106Z,7.82
2023-05-03T16:49:17.936Z,7.60
2023-05-03T16:51:44.249Z,6.88
2023-05-03T16:54:11.201Z,8.65
2023-05-03T16:56:37.477Z,7.38
2023-05-03T16:59:04.360Z,7.68
2023-05-03T17:01:31.307Z,6.15
2023-05-03T17:03:57.645Z,7.70
2023-05-03T17:06:23.946Z,6.25
2023-05-03T17:08:50.519Z,6.55
2023-05-03T17:11:16.997Z,6.05
2023-05-03T17:13:43.746Z,6.18
2023-05-03T17:16:12.021Z,5.65
2023-05-03T17:18:39.823Z,5.20
2023-05-03T17:21:07.471Z,5.57
2023-05-03T17:23:35.023Z,6.25
2023-05-03T17:26:02.080Z,6.68
2023-05-03T17:28:28.381Z,5.55
2023-05-03T17:30:55.004Z,13.00
2023-05-03T17:33:21.526Z,8.32
2023-05-03T17:35:48.461Z,7.10
2023-05-03T17:38:14.958Z,6.35
2023-05-03T17:40:42.518Z,7.50
2023-05-03T17:43:09.094Z,5.53
2023-05-03T17:45:35.999Z,5.93
2023-05-03T17:48:03.296Z,6.82
2023-05-03T17:50:29.624Z,5.63
2023-05-03T17:52:56.716Z,5.72
2023-05-03T17:55:23.452Z,7.53
2023-05-03T17:57:50.129Z,6.00
2023-05-03T18:00:18.419Z,5.93
2023-05-03T18:02:44.913Z,6.47
2023-05-03T18:05:11.448Z,5.85
2023-05-03T18:07:37.743Z,5.75
2023-05-03T18:10:06.000Z,5.82
2023-05-03T18:12:32.530Z,5.70
2023-05-03T18:14:58.942Z,6.15
2023-05-03T18:17:29.409Z,6.05
2023-05-03T18:19:56.093Z,6.00
2023-05-03T18:22:22.570Z,6.18
2023-05-03T18:24:53.200Z,6.18
2023-05-03T18:27:21.311Z,6.95
2023-05-03T18:29:48.184Z,7.20
2023-05-03T18:32:14.833Z,6.72
2023-05-03T18:34:41.222Z,6.03
2023-05-03T18:37:07.794Z,6.47
2023-05-03T18:39:34.628Z,7.10
2023-05-03T18:42:01.173Z,6.78
2023-05-03T18:44:28.292Z,13.48
2023-05-03T18:46:54.935Z,6.65
2023-05-03T18:49:21.477Z,7.20
2023-05-03T18:51:48.999Z,7.38
2023-05-03T18:54:15.476Z,7.13
2023-05-03T18:56:41.836Z,8.00
2023-05-03T18:59:08.191Z,8.85
2023-05-03T19:01:35.310Z,8.73
2023-05-03T19:04:02.160Z,7.20
2023-05-03T19:06:28.485Z,9.60
2023-05-03T19:08:54.958Z,7.57
2023-05-03T19:11:21.284Z,8.95
2023-05-03T19:13:47.645Z,11.07
2023-05-03T19:16:14.929Z,8.13
2023-05-03T19:18:43.585Z,8.38
2023-05-03T19:21:11.323Z,7.68
2023-05-03T19:23:37.748Z,7.78
2023-05-03T19:26:04.429Z,8.00
2023-05-03T19:28:30.954Z,8.70
2023-05-03T19:30:57.469Z,8.70
2023-05-03T19:33:25.023Z,9.02
2023-05-03T19:35:52.152Z,8.63
2023-05-03T19:38:18.491Z,11.30
2023-05-03T19:40:55.243Z,8.70
2023-05-03T19:43:21.641Z,8.60
2023-05-03T19:45:48.069Z,12.00
2023-05-03T19:48:16.612Z,9.00
2023-05-03T19:50:43.577Z,9.18
2023-05-03T19:53:10.816Z,10.60
2023-05-03T19:55:37.167Z,9.55
2023-05-03T19:58:03.636Z,10.13
2023-05-03T20:00:30.072Z,12.27
2023-05-03T20:02:56.457Z,9.75
2023-05-03T20:05:22.837Z,11.63
2023-05-03T20:07:51.729Z,9.25
2023-05-03T20:10:18.816Z,11.82
2023-05-03T20:12:45.223Z,12.43
2023-05-03T20:15:11.991Z,11.02
2023-05-03T20:17:38.393Z,11.30
2023-05-03T20:20:09.911Z,10.23
2023-05-03T20:22:36.487Z,10.70
2023-05-03T20:25:03.242Z,11.07
2023-05-03T20:27:30.346Z,13.38
2023-05-03T20:29:56.943Z,13.45
2023-05-03T20:32:23.354Z,12.55
2023-05-03T20:34:49.766Z,13.95
2023-05-03T20:37:16.145Z,12.35
2023-05-03T20:39:42.419Z,12.32
2023-05-03T20:42:08.808Z,12.43
2023-05-03T20:44:35.841Z,15.50
2023-05-03T20:47:02.239Z,13.18
2023-05-03T20:49:29.343Z,12.40
2023-05-03T20:51:55.823Z,15.07
2023-05-03T20:54:22.224Z,16.08
2023-05-03T20:56:48.523Z,14.27
2023-05-03T20:59:14.836Z,14.95
2023-05-03T21:01:42.019Z,14.77
2023-05-03T21:04:08.771Z,12.70
2023-05-03T21:06:37.315Z,13.57
2023-05-03T21:09:03.670Z,15.82
2023-05-03T21:11:29.993Z,17.77
2023-05-03T21:13:56.356Z,15.30
2023-05-03T21:16:22.885Z,14.13
2023-05-03T21:18:51.158Z,14.05
2023-05-03T21:21:17.481Z,14.07
2023-05-03T21:23:44.042Z,14.23
2023-05-03T21:26:10.457Z,15.57
2023-05-03T21:28:36.793Z,16.02
2023-05-03T21:31:03.206Z,15.38
2023-05-03T21:33:29.528Z,15.88
2023-05-03T21:35:56.480Z,14.68
2023-05-03T21:38:22.872Z,17.83
2023-05-03T21:40:49.236Z,17.48
2023-05-03T21:43:15.543Z,20.17
2023-05-03T21:45:42.479Z,16.35
2023-05-03T21:48:08.953Z,15.05
2023-05-03T21:50:37.785Z,17.48
2023-05-03T21:53:04.932Z,18.63
2023-05-03T21:55:31.463Z,16.40
2023-05-03T21:57:57.816Z,18.75
2023-05-03T22:00:24.410Z,16.73
2023-05-03T22:02:50.842Z,15.43
2023-05-03T22:05:17.337Z,16.88
2023-05-03T22:07:43.792Z,19.75
2023-05-03T22:10:10.844Z,17.00
2023-05-03T22:12:37.387Z,16.55
2023-05-03T22:15:04.382Z,18.77
2023-05-03T22:17:30.989Z,16.83
2023-05-03T22:19:57.570Z,18.05
2023-05-03T22:22:23.888Z,16.90
2023-05-03T22:24:50.237Z,20.85
2023-05-03T22:27:17.254Z,18.73
2023-05-03T22:29:43.590Z,20.40
2023-05-03T22:32:09.903Z,19.75
2023-05-03T22:34:36.253Z,17.10
2023-05-03T22:37:02.708Z,17.08
2023-05-03T22:39:29.041Z,21.23
2023-05-03T22:41:55.501Z,20.02
2023-05-03T22:44:22.469Z,19.65
2023-05-03T22:46:48.768Z,19.30
2023-05-03T22:49:15.108Z,17.80
2023-05-03T22:51:41.420Z,20.58
2023-05-03T23:00:53.597Z,21.27
2023-05-03T23:03:21.159Z,21.08
2023-05-03T23:05:48.843Z,24.13
2023-05-03T23:08:15.308Z,21.73
2023-05-03T23:10:41.810Z,20.88
2023-05-03T23:13:08.753Z,22.50
2023-05-03T23:15:36.905Z,20.88
2023-05-03T23:18:03.537Z,24.60
2023-05-03T23:20:29.975Z,21.10
2023-05-03T23:22:56.414Z,20.65
2023-05-03T23:25:22.740Z,19.98
2023-05-03T23:27:49.486Z,18.73
2023-05-03T23:30:16.288Z,19.13
2023-05-03T23:32:45.355Z,21.58
2023-05-03T23:35:12.764Z,19.88
2023-05-03T23:37:39.073Z,19.75
2023-05-03T23:40:06.669Z,20.52
2023-05-03T23:42:33.176Z,26.80
2023-05-03T23:44:59.452Z,22.67
2023-05-03T23:47:25.788Z,21.92
2023-05-03T23:49:52.793Z,23.23
2023-05-03T23:52:19.642Z,22.90
2023-05-03T23:54:46.152Z,25.65
2023-05-03T23:57:12.457Z,23.63
2023-05-03T23:59:38.765Z,22.05
